• Join FlightAware (Why Join?)
  • Login
  • US Flag 
11:54AM EDT


 

Airport Tracker/Info


-or-


 

Live Flight TrackerFlight Track Log ✈ SWA418 ✈ 01-Jan-2014 ✈ KTPA - KBUF

Flight Track Log - Related Links

Times and Time Zones

All times are in EST time to prevent confusion due to time zone crossing. See the SWA418 flight status page for this flight to view local times or setup timezone preferences in your user account.

Time Position Orientation Groundspeed Altitude Reporting Facility
EST Latitude Longitude Course Direction KTS MPH feet Rate Location/Type
10:49PM 28.0000 -82.5333 360° North 144 166 700  Level Tampa TRACON
10:50PM 28.0000 -82.5333 270° West 162 186 1,300 1,740 Climbing Tampa TRACON
10:52PM 28.1286 -82.5442 356° North 253 291 4,600 2,280 Climbing Jacksonville Center
10:53PM 28.2100 -82.5558 353° North 266 306 8,000 3,420 Climbing Jacksonville Center
10:54PM 28.2956 -82.5719 351° North 293 337 11,500 3,000 Climbing Jacksonville Center
10:55PM 28.3978 -82.5811 355° North 329 379 14,100 2,700 Climbing Jacksonville Center
10:56PM 28.5044 -82.5856 358° North 361 415 16,900 2,640 Climbing Jacksonville Center
10:57PM 28.6192 -82.5875 359° North 391 450 19,400 2,340 Climbing Jacksonville Center
10:58PM 28.7236 -82.5967 356° North 413 475 21,600 2,400 Climbing Jacksonville Center
10:59PM 28.8425 -82.6153 352° North 425 489 24,200 2,220 Climbing Jacksonville Center
11:00PM 28.9656 -82.6314 353° North 430 495 26,100 1,980 Climbing Jacksonville Center
11:01PM 29.0889 -82.6478 353° North 437 503 28,200 1,800 Climbing Jacksonville Center
11:02PM 29.2161 -82.6642 354° North 448 516 29,800 1,500 Climbing Jacksonville Center
11:03PM 29.3497 -82.6831 353° North 458 527 31,200 1,200 Climbing Jacksonville Center
11:04PM 29.4981 -82.6992 355° North 479 551 32,200 1,380 Climbing Jacksonville Center
11:05PM 29.6317 -82.6967 North 477 549 34,000 1,680 Climbing Jacksonville Center
11:06PM 29.7653 -82.6939 North 477 549 35,600 1,440 Climbing Jacksonville Center
11:07PM 29.8969 -82.6914 North 477 549 36,900 1,200 Climbing Jacksonville Center
11:08PM 30.0283 -82.6886 North 472 543 38,000 1,020 Climbing Jacksonville Center
11:09PM 30.1600 -82.6858 North 472 543 39,000 480 Climbing Jacksonville Center
11:10PM 30.2936 -82.6856 360° North 472 543 39,000  Level Jacksonville Center
11:11PM 30.4272 -82.6853 360° North 477 549 39,000  Level Jacksonville Center
11:12PM 30.5314 -82.6803 North 472 543 39,000  Level Jacksonville Center
11:13PM 30.6903 -82.6583 North 472 543 39,000  Level Jacksonville Center
11:14PM 30.8236 -82.6336 North 477 549 39,000  Level Jacksonville Center
11:15PM 30.9572 -82.6117 North 484 557 39,000  Level Jacksonville Center
11:16PM 31.0950 -82.5869 North 484 557 39,000  Level Jacksonville Center
11:17PM 31.2244 -82.5669 North 478 550 39,000  Level Jacksonville Center
11:18PM 31.4450 -82.5250 North 498 573 39,000  Level Atlanta Center
11:19PM 31.5783 -82.5008 North 498 573 39,000  Level Atlanta Center
11:20PM 31.7136 -82.4739 10° North 493 567 39,000  Level Atlanta Center
11:21PM 31.8489 -82.4350 14° North 493 567 39,000  Level Atlanta Center
11:22PM 31.9800 -82.4008 12° North 488 562 39,000  Level Atlanta Center
11:23PM 32.1172 -82.3639 13° North 488 562 39,000  Level Atlanta Center
11:24PM 32.2525 -82.3319 11° North 488 562 39,000  Level Atlanta Center
11:25PM 32.3833 -82.2950 13° North 483 556 39,000  Level Atlanta Center
11:26PM 32.5061 -82.2631 12° North 492 566 39,000  Level Atlanta Center
11:27PM 32.6392 -82.2308 12° North 492 566 39,000  Level Atlanta Center
11:28PM 32.7764 -82.1933 13° North 492 566 39,000  Level Atlanta Center
11:29PM 32.9136 -82.1583 12° North 492 566 39,000  Level Atlanta Center
11:30PM 33.0486 -82.1206 13° North 492 566 39,000  Level Atlanta Center
11:31PM 33.1881 -82.0853 12° North 497 572 39,000  Level Atlanta Center
11:32PM 33.3253 -82.0475 13° North 502 578 39,000  Level Atlanta Center
11:33PM 33.4644 -82.0094 13° North 507 583 39,000  Level Atlanta Center
11:34PM 33.6036 -81.9711 13° North 507 583 39,000  Level Atlanta Center
11:35PM 33.7428 -81.9353 12° North 507 583 39,000  Level Atlanta Center
11:36PM 33.8944 -81.8942 13° North 507 583 39,000  Level Atlanta Center
11:37PM 34.0294 -81.8556 13° North 507 583 39,000  Level Atlanta Center
11:38PM 34.1667 -81.8194 12° North 501 577 39,000  Level Atlanta Center
11:39PM 34.3017 -81.7858 12° North 501 577 39,000  Level Atlanta Center
11:40PM 34.4367 -81.7494 13° North 496 571 39,000  Level Atlanta Center
11:41PM 34.5672 -81.7106 14° North 496 571 39,000  Level Atlanta Center
11:42PM 34.7022 -81.6764 12° North 491 565 39,000  Level Atlanta Center
11:43PM 34.8186 -81.6478 11° North 484 557 39,000  Level Atlanta Center
11:44PM 34.9494 -81.6086 14° North 484 557 39,000  Level Atlanta Center
11:45PM 35.0781 -81.5719 13° North 484 557 39,000  Level Atlanta Center
11:46PM 35.2086 -81.5375 12° North 479 551 39,000  Level Atlanta Center
11:47PM 35.3414 -81.5003 13° North 479 551 39,000  Level Atlanta Center
11:48PM 35.4742 -81.4631 13° North 485 558 39,000  Level Atlanta Center
11:49PM 35.6050 -81.4308 11° North 485 558 39,000  Level Atlanta Center
11:50PM 35.7417 -81.3881 14° North 490 564 39,000  Level Atlanta Center
11:51PM 35.8722 -81.3481 14° North 485 558 39,000  Level Atlanta Center
11:52PM 36.0050 -81.3103 13° North 485 558 39,000  Level Atlanta Center
11:53PM 36.1336 -81.2725 13° North 485 558 39,000  Level Atlanta Center
11:54PM 36.2681 -81.2344 13° North 485 558 39,000  Level Atlanta Center
11:55PM 36.4008 -81.1936 14° North 485 558 39,000  Level Atlanta Center
11:56PM 36.5333 -81.1553 13° North 485 558 39,000  Level Atlanta Center
11:57PM 36.6636 -81.1169 13° North 485 558 39,000  Level Atlanta Center
11:58PM 36.7942 -81.0786 13° North 485 558 39,000  Level Atlanta Center
11:59PM 36.9392 -81.0394 12° North 480 552 39,000  Level Atlanta Center
12:01AM 37.1800 -80.9689 13° North 487 560 39,000  Level Indianapolis Center
12:02AM 37.3089 -80.9306 13° North 487 560 39,000  Level Indianapolis Center
12:03AM 37.4650 -80.8833 14° North 489 563 39,000  Level Indianapolis Center
12:04AM 37.5953 -80.8453 13° North 491 565 39,000  Level Indianapolis Center
12:05AM 37.7258 -80.8061 13° North 493 567 39,000  Level Indianapolis Center
12:06AM 37.8550 -80.7672 13° North 493 567 39,000  Level Indianapolis Center
12:07AM 37.9878 -80.7269 13° North 492 566 39,000  Level Indianapolis Center
12:08AM 38.1206 -80.6864 14° North 492 566 39,000  Level Indianapolis Center
12:09AM 38.2539 -80.6458 13° North 492 566 39,000  Level Indianapolis Center
12:10AM 38.3578 -80.6203 11° North 491 565 39,000  Level Washington Center
12:11AM 38.4908 -80.5789 14° North 491 565 39,000  Level Washington Center
12:12AM 38.6386 -80.5356 13° North 491 565 39,000  Level Washington Center
12:13AM 38.7850 -80.4814 16° North 494 568 39,000  Level Indianapolis Center
12:14AM 38.9206 -80.4408 13° North 500 575 39,000  Level Indianapolis Center
12:15AM 39.0561 -80.3983 14° North 501 577 39,000  Level Indianapolis Center
12:16AM 39.1908 -80.3561 14° North 501 577 39,000  Level Indianapolis Center
12:18AM 39.4586 -80.2733 13° North 506 582 39,000  Level Cleveland Center
12:19AM 39.5936 -80.2325 13° North 501 577 39,000  Level Cleveland Center
12:20AM 39.7303 -80.1894 14° North 505 581 39,000  Level Cleveland Center
12:21AM 39.8639 -80.1469 14° North 500 575 39,000  Level Cleveland Center
12:22AM 39.9972 -80.1042 14° North 496 571 39,000  Level Cleveland Center
12:23AM 40.1289 -80.0628 14° North 491 565 39,000  Level Cleveland Center
12:24AM 40.2589 -80.0203 14° North 490 564 39,000  Level Cleveland Center
12:25AM 40.4122 -79.9706 14° North 486 559 39,000  Level Cleveland Center
12:26AM 40.5403 -79.9281 14° North 485 558 39,000  Level Cleveland Center
12:27AM 40.6694 -79.8853 14° North 483 556 39,000  Level Cleveland Center
12:28AM 40.7983 -79.8431 14° North 480 552 39,000 -120 Level Cleveland Center
12:29AM 40.9267 -79.8014 14° North 477 549 38,800 -1,380 Descending Cleveland Center
12:30AM 41.0536 -79.7617 13° North 471 542 36,300 -2,580 Descending Cleveland Center
12:31AM 41.1736 -79.7217 14° North 472 543 33,700 -2,820 Descending Cleveland Center
12:32AM 41.3050 -79.6769 14° North 482 555 30,700 -2,760 Descending Cleveland Center
12:33AM 41.4361 -79.6333 14° North 484 557 28,200 -2,400 Descending Cleveland Center
12:34AM 41.5617 -79.5897 15° North 470 541 25,900 -2,340 Descending Cleveland Center
12:35AM 41.6811 -79.5478 15° North 448 516 23,600 -2,100 Descending Cleveland Center
12:36AM 41.7936 -79.4819 24° Northeast 438 504 21,800 -1,860 Descending Cleveland Center
12:37AM 41.9008 -79.4161 25° Northeast 423 487 19,900 -1,920 Descending Cleveland Center
12:38AM 42.0033 -79.3542 24° Northeast 406 467 18,000 -1,800 Descending Cleveland Center
12:39AM 42.1031 -79.2933 24° Northeast 393 452 16,400 -1,620 Descending Cleveland Center
12:40AM 42.1992 -79.2356 24° Northeast 380 437 14,800 -1,740 Descending Cleveland Center
12:41AM 42.2925 -79.1783 24° Northeast 369 425 13,000 -1,800 Descending Cleveland Center
12:42AM 42.3997 -79.1122 24° Northeast 354 407 11,200 -1,380 Descending Cleveland Center
12:43AM 42.4847 -79.0739 18° North 327 376 10,300 -1,260 Descending Cleveland Center
12:44AM 42.5650 -79.0492 13° North 305 351 8,700 -1,800 Descending Cleveland Center
12:45AM 42.6478 -79.0258 12° North 295 339 6,800 -1,680 Descending Cleveland Center
12:46AM 42.7233 -79.0064 11° North 288 331 5,400 -1,080 Descending Cleveland Center
12:47AM 42.7725 -78.9472 41° Northeast 252 290 4,700 -600 Descending Cleveland Center
12:48AM 42.8156 -78.8931 43° Northeast 211 243 4,200 -840 Descending Cleveland Center
12:49AM 42.8500 -78.8481 44° Northeast 187 215 3,100 -960 Descending Cleveland Center
12:50AM 42.8814 -78.8072 44° Northeast 160 184 2,300 -660 Descending Cleveland Center
12:51AM 42.8983 -78.7856 43° Northeast 124 143 1,800 -540 Descending Cleveland Center
12:54AM 42.9333 -78.7167 28° Northeast  Level FlightAware Approximate
01:01AM 42.9404 -78.7306 28° Northeast  Level Estimated